ANA811 RJAA-VHHH
Flight info
| Callsign | ANA811 |
|---|---|
| Flight time | N/A |
| Altitude | 36000 |
| Route | PIGOK Y50 IGMON A1 ELATO V522 ABBEY |
| Aircraft | B77W/H-SDE1E2E3FGHIJ2J3J4J5M1RWXY/LB1D1 |
Departure
| Time | 2026-05-05 02:13 |
|---|---|
| Airport | Narita International Airport (RJAA) |
Arrival
| Time | N/A |
|---|---|
| Airport | Hong Kong International Airport (VHHH) |
| Time | Latitude | Longitude | Altitude | Speed | Heading |
|---|---|---|---|---|---|
| 2026-05-05 01:48 | 35.76033 | 140.38719 | 146 ft | 0 kts | 239° |
| 2026-05-05 02:01 | 35.76033 | 140.38721 | 145 ft | 0 kts | 239° |
| 2026-05-05 02:01 | 35.76041 | 140.38734 | 145 ft | 2 kts | 239° |
| 2026-05-05 02:01 | 35.76048 | 140.38751 | 145 ft | 2 kts | 239° |
| 2026-05-05 02:01 | 35.76055 | 140.38766 | 145 ft | 2 kts | 239° |
| 2026-05-05 02:02 | 35.76063 | 140.38783 | 145 ft | 2 kts | 239° |
| 2026-05-05 02:02 | 35.76071 | 140.38798 | 145 ft | 2 kts | 239° |
| 2026-05-05 02:02 | 35.76078 | 140.38815 | 145 ft | 2 kts | 248° |
| 2026-05-05 02:02 | 35.76082 | 140.38832 | 145 ft | 2 kts | 272° |
| 2026-05-05 02:03 | 35.76079 | 140.38850 | 145 ft | 2 kts | 291° |
| 2026-05-05 02:03 | 35.76072 | 140.38867 | 145 ft | 2 kts | 297° |
| 2026-05-05 02:03 | 35.76065 | 140.38884 | 145 ft | 2 kts | 295° |
| 2026-05-05 02:03 | 35.76059 | 140.38901 | 145 ft | 2 kts | 302° |
| 2026-05-05 02:04 | 35.76049 | 140.38915 | 145 ft | 2 kts | 326° |
| 2026-05-05 02:04 | 35.76036 | 140.38922 | 145 ft | 2 kts | 343° |
| 2026-05-05 02:04 | 35.76022 | 140.38925 | 145 ft | 2 kts | 1° |
| 2026-05-05 02:04 | 35.76006 | 140.38922 | 145 ft | 2 kts | 19° |
| 2026-05-05 02:05 | 35.75993 | 140.38915 | 145 ft | 2 kts | 27° |
| 2026-05-05 02:05 | 35.75980 | 140.38907 | 145 ft | 2 kts | 25° |
| 2026-05-05 02:05 | 35.75966 | 140.38899 | 145 ft | 2 kts | 24° |
| 2026-05-05 02:05 | 35.75952 | 140.38892 | 145 ft | 2 kts | 24° |
| 2026-05-05 02:06 | 35.75942 | 140.38887 | 145 ft | 0 kts | 24° |
| 2026-05-05 02:07 | 35.75963 | 140.38898 | 145 ft | 7 kts | 24° |
| 2026-05-05 02:08 | 35.76022 | 140.38940 | 145 ft | 11 kts | 62° |
| 2026-05-05 02:08 | 35.75987 | 140.39052 | 145 ft | 17 kts | 137° |
| 2026-05-05 02:08 | 35.75877 | 140.39137 | 145 ft | 20 kts | 149° |
| 2026-05-05 02:08 | 35.75775 | 140.39200 | 145 ft | 14 kts | 176° |
| 2026-05-05 02:09 | 35.75689 | 140.39121 | 145 ft | 17 kts | 220° |
| 2026-05-05 02:09 | 35.75571 | 140.39046 | 145 ft | 20 kts | 205° |
| 2026-05-05 02:09 | 35.75435 | 140.38969 | 145 ft | 23 kts | 204° |
| 2026-05-05 02:09 | 35.75280 | 140.38884 | 145 ft | 25 kts | 204° |
| 2026-05-05 02:10 | 35.75112 | 140.38797 | 145 ft | 24 kts | 185° |
| 2026-05-05 02:10 | 35.74951 | 140.38884 | 145 ft | 25 kts | 149° |
| 2026-05-05 02:10 | 35.74806 | 140.38989 | 145 ft | 23 kts | 149° |
| 2026-05-05 02:10 | 35.74670 | 140.39087 | 145 ft | 21 kts | 149° |
| 2026-05-05 02:11 | 35.74570 | 140.39094 | 145 ft | 14 kts | 224° |
| 2026-05-05 02:11 | 35.74539 | 140.38988 | 145 ft | 12 kts | 270° |
| 2026-05-05 02:11 | 35.74572 | 140.38899 | 145 ft | 9 kts | 315° |
| 2026-05-05 02:11 | 35.74623 | 140.38861 | 145 ft | 8 kts | 330° |
| 2026-05-05 02:12 | 35.74679 | 140.38823 | 145 ft | 14 kts | 330° |
| 2026-05-05 02:12 | 35.75613 | 140.38148 | 145 ft | 141 kts | 329° |
| 2026-05-05 02:12 | 35.76562 | 140.37459 | 428 ft | 165 kts | 330° |
| 2026-05-05 02:13 | 35.77543 | 140.36742 | 1091 ft | 171 kts | 330° |
| 2026-05-05 02:13 | 35.78575 | 140.35992 | 1872 ft | 171 kts | 330° |
| 2026-05-05 02:13 | 35.79591 | 140.35292 | 2406 ft | 177 kts | 330° |
| 2026-05-05 02:13 | 35.80682 | 140.34508 | 2945 ft | 181 kts | 330° |
| 2026-05-05 02:14 | 35.81795 | 140.33704 | 3354 ft | 197 kts | 330° |
| 2026-05-05 02:14 | 35.83075 | 140.32768 | 3495 ft | 230 kts | 329° |
| 2026-05-05 02:14 | 35.84537 | 140.31709 | 3853 ft | 252 kts | 329° |
| 2026-05-05 02:14 | 35.86064 | 140.30609 | 4703 ft | 255 kts | 329° |
| 2026-05-05 02:15 | 35.87584 | 140.29504 | 5519 ft | 259 kts | 328° |
| 2026-05-05 02:15 | 35.89144 | 140.28368 | 6278 ft | 264 kts | 328° |
| 2026-05-05 02:15 | 35.90733 | 140.27210 | 7095 ft | 266 kts | 328° |
| 2026-05-05 02:15 | 35.92406 | 140.26305 | 7994 ft | 265 kts | 348° |
| 2026-05-05 02:16 | 35.94228 | 140.26392 | 8779 ft | 271 kts | 14° |
| 2026-05-05 02:16 | 35.95876 | 140.27528 | 9497 ft | 281 kts | 39° |
| 2026-05-05 02:16 | 35.97003 | 140.29546 | 10182 ft | 295 kts | 64° |
| 2026-05-05 02:16 | 35.97396 | 140.32135 | 10527 ft | 322 kts | 88° |
| 2026-05-05 02:17 | 35.96905 | 140.34932 | 10806 ft | 349 kts | 111° |
| 2026-05-05 02:17 | 35.95525 | 140.37488 | 11127 ft | 371 kts | 134° |
| 2026-05-05 02:17 | 35.93409 | 140.39445 | 11450 ft | 389 kts | 155° |
| 2026-05-05 02:17 | 35.90778 | 140.40328 | 11986 ft | 394 kts | 180° |
| 2026-05-05 02:18 | 35.88101 | 140.39810 | 12524 ft | 392 kts | 208° |
| 2026-05-05 02:18 | 35.85685 | 140.38361 | 13364 ft | 392 kts | 212° |
| 2026-05-05 02:18 | 35.83206 | 140.36876 | 14218 ft | 398 kts | 212° |
| 2026-05-05 02:18 | 35.80695 | 140.35390 | 15145 ft | 402 kts | 212° |
| 2026-05-05 02:19 | 35.78183 | 140.33908 | 16093 ft | 404 kts | 212° |
| 2026-05-05 02:19 | 35.75635 | 140.32411 | 16993 ft | 408 kts | 212° |
| 2026-05-05 02:19 | 35.73081 | 140.30864 | 17892 ft | 409 kts | 216° |
| 2026-05-05 02:19 | 35.70734 | 140.28947 | 18687 ft | 408 kts | 223° |
| 2026-05-05 02:20 | 35.68471 | 140.26883 | 19712 ft | 406 kts | 223° |
| 2026-05-05 02:20 | 35.66233 | 140.24837 | 20871 ft | 401 kts | 224° |
| 2026-05-05 02:20 | 35.64001 | 140.22795 | 21927 ft | 398 kts | 224° |
| 2026-05-05 02:20 | 35.61799 | 140.20781 | 22821 ft | 398 kts | 224° |
| 2026-05-05 02:21 | 35.59565 | 140.18738 | 23676 ft | 398 kts | 225° |
| 2026-05-05 02:21 | 35.57374 | 140.16737 | 24470 ft | 398 kts | 224° |
| 2026-05-05 02:21 | 35.55139 | 140.14699 | 25386 ft | 395 kts | 224° |
| 2026-05-05 02:21 | 35.52974 | 140.12724 | 26271 ft | 392 kts | 224° |
| 2026-05-05 02:22 | 35.50805 | 140.10748 | 27126 ft | 389 kts | 224° |
| 2026-05-05 02:22 | 35.48630 | 140.08766 | 27955 ft | 387 kts | 224° |
| 2026-05-05 02:22 | 35.46481 | 140.06812 | 28785 ft | 384 kts | 224° |
| 2026-05-05 02:22 | 35.44350 | 140.04874 | 29560 ft | 381 kts | 225° |
| 2026-05-05 02:23 | 35.42249 | 140.02963 | 30278 ft | 380 kts | 224° |
| 2026-05-05 02:23 | 35.40107 | 140.01015 | 30801 ft | 383 kts | 224° |
| 2026-05-05 02:23 | 35.37965 | 139.99066 | 31348 ft | 385 kts | 224° |
| 2026-05-05 02:23 | 35.35812 | 139.97099 | 32008 ft | 382 kts | 225° |
| 2026-05-05 02:24 | 35.33876 | 139.94977 | 32850 ft | 371 kts | 230° |
| 2026-05-05 02:24 | 35.32225 | 139.92667 | 33699 ft | 361 kts | 236° |
| 2026-05-05 02:24 | 35.30798 | 139.90134 | 34269 ft | 358 kts | 240° |
| 2026-05-05 02:24 | 35.29635 | 139.87442 | 34654 ft | 360 kts | 246° |
| 2026-05-05 02:25 | 35.28706 | 139.84587 | 35118 ft | 361 kts | 248° |
| 2026-05-05 02:25 | 35.27832 | 139.81711 | 35606 ft | 360 kts | 248° |
| 2026-05-05 02:25 | 35.26958 | 139.78873 | 36061 ft | 360 kts | 248° |
| 2026-05-05 02:26 | 35.25164 | 139.73141 | 36167 ft | 360 kts | 249° |
| 2026-05-05 02:26 | 35.23373 | 139.67470 | 36168 ft | 358 kts | 248° |
| 2026-05-05 02:27 | 35.21569 | 139.61787 | 36162 ft | 358 kts | 249° |
| 2026-05-05 02:27 | 35.19766 | 139.56120 | 36156 ft | 359 kts | 248° |
| 2026-05-05 02:28 | 35.18097 | 139.50394 | 36149 ft | 360 kts | 256° |
| 2026-05-05 02:28 | 35.17680 | 139.44273 | 36154 ft | 365 kts | 262° |
| 2026-05-05 02:29 | 35.17399 | 139.38049 | 36155 ft | 367 kts | 261° |
| 2026-05-05 02:29 | 35.17113 | 139.31844 | 36179 ft | 365 kts | 261° |
| 2026-05-05 02:30 | 35.16824 | 139.25667 | 36174 ft | 366 kts | 261° |
| 2026-05-05 02:30 | 35.16531 | 139.19496 | 36177 ft | 365 kts | 262° |
| 2026-05-05 02:31 | 35.16235 | 139.13312 | 36177 ft | 365 kts | 262° |
| 2026-05-05 02:31 | 35.15936 | 139.07152 | 36175 ft | 366 kts | 262° |
| 2026-05-05 02:32 | 35.15631 | 139.00915 | 36166 ft | 367 kts | 261° |
| 2026-05-05 02:32 | 35.15324 | 138.94714 | 36163 ft | 368 kts | 261° |
| 2026-05-05 02:33 | 35.15012 | 138.88469 | 36164 ft | 367 kts | 261° |
| 2026-05-05 02:33 | 35.14700 | 138.82295 | 36162 ft | 367 kts | 262° |
| 2026-05-05 02:34 | 35.14382 | 138.76059 | 36159 ft | 369 kts | 262° |
| 2026-05-05 02:34 | 35.14057 | 138.69766 | 36162 ft | 368 kts | 262° |
| 2026-05-05 02:35 | 35.13732 | 138.63539 | 36161 ft | 369 kts | 262° |
| 2026-05-05 02:35 | 35.13401 | 138.57248 | 36161 ft | 368 kts | 262° |
| 2026-05-05 02:36 | 35.13068 | 138.50970 | 36158 ft | 370 kts | 262° |
| 2026-05-05 02:36 | 35.12732 | 138.44694 | 36155 ft | 370 kts | 262° |
| 2026-05-05 02:37 | 35.12391 | 138.38417 | 36155 ft | 371 kts | 262° |
| 2026-05-05 02:37 | 35.12049 | 138.32156 | 36179 ft | 371 kts | 261° |
| 2026-05-05 02:38 | 35.11702 | 138.25876 | 36181 ft | 370 kts | 261° |
| 2026-05-05 02:38 | 35.11352 | 138.19598 | 36177 ft | 372 kts | 262° |
| 2026-05-05 02:39 | 35.11000 | 138.13341 | 36276 ft | 371 kts | 261° |
| 2026-05-05 02:39 | 35.10821 | 138.10187 | 35931 ft | 373 kts | 261° |
| 2026-05-05 02:39 | 35.10642 | 138.07031 | 36144 ft | 372 kts | 261° |
| 2026-05-05 02:40 | 35.10278 | 138.00685 | 36164 ft | 376 kts | 262° |
| 2026-05-05 02:40 | 35.09911 | 137.94338 | 36170 ft | 374 kts | 262° |
| 2026-05-05 02:41 | 35.09540 | 137.87985 | 36164 ft | 376 kts | 262° |
| 2026-05-05 02:41 | 35.09165 | 137.81615 | 36166 ft | 376 kts | 262° |
| 2026-05-05 02:42 | 35.08789 | 137.75279 | 36159 ft | 377 kts | 262° |
| 2026-05-05 02:42 | 35.08409 | 137.68941 | 36161 ft | 376 kts | 262° |
| 2026-05-05 02:43 | 35.07380 | 137.62741 | 36167 ft | 375 kts | 250° |
| 2026-05-05 02:43 | 35.05669 | 137.56749 | 36165 ft | 373 kts | 250° |
| 2026-05-05 02:44 | 35.03943 | 137.50751 | 36156 ft | 373 kts | 250° |
| 2026-05-05 02:44 | 35.02226 | 137.44795 | 36170 ft | 373 kts | 251° |
| 2026-05-05 02:45 | 35.00524 | 137.38826 | 36161 ft | 375 kts | 250° |
| 2026-05-05 02:45 | 34.98807 | 137.32816 | 36123 ft | 375 kts | 250° |
| 2026-05-05 02:45 | 34.97945 | 137.29805 | 36416 ft | 372 kts | 250° |
| 2026-05-05 02:46 | 34.97096 | 137.26846 | 36229 ft | 376 kts | 250° |
| 2026-05-05 02:46 | 34.95384 | 137.20882 | 36230 ft | 373 kts | 250° |
| 2026-05-05 02:47 | 34.93671 | 137.14929 | 36192 ft | 372 kts | 250° |
| 2026-05-05 02:47 | 34.91947 | 137.08954 | 36192 ft | 373 kts | 250° |
| 2026-05-05 02:48 | 34.90230 | 137.03014 | 36192 ft | 373 kts | 250° |
| 2026-05-05 02:48 | 34.88502 | 136.97049 | 36197 ft | 374 kts | 250° |
| 2026-05-05 02:49 | 34.86768 | 136.91074 | 36195 ft | 373 kts | 250° |
| 2026-05-05 02:49 | 34.84828 | 136.85220 | 36198 ft | 375 kts | 246° |
| 2026-05-05 02:50 | 34.82614 | 136.79475 | 36191 ft | 374 kts | 246° |
| 2026-05-05 02:50 | 34.80401 | 136.73740 | 36191 ft | 374 kts | 246° |
| 2026-05-05 02:51 | 34.78192 | 136.68016 | 36185 ft | 375 kts | 246° |
| 2026-05-05 02:51 | 34.75966 | 136.62257 | 36184 ft | 376 kts | 246° |
| 2026-05-05 02:52 | 34.73744 | 136.56519 | 36179 ft | 375 kts | 246° |
| 2026-05-05 02:52 | 34.71539 | 136.50833 | 36175 ft | 375 kts | 246° |
| 2026-05-05 02:53 | 34.69299 | 136.45067 | 36174 ft | 375 kts | 246° |
| 2026-05-05 02:53 | 34.67080 | 136.39366 | 36176 ft | 376 kts | 246° |
| 2026-05-05 02:54 | 34.64851 | 136.33646 | 36193 ft | 374 kts | 245° |
| 2026-05-05 02:54 | 34.62621 | 136.27937 | 36198 ft | 375 kts | 246° |
| 2026-05-05 02:55 | 34.60387 | 136.22226 | 36200 ft | 376 kts | 246° |
| 2026-05-05 02:55 | 34.58107 | 136.16464 | 36192 ft | 375 kts | 244° |
| 2026-05-05 02:56 | 34.55686 | 136.10843 | 36193 ft | 377 kts | 244° |
| 2026-05-05 02:56 | 34.53272 | 136.05235 | 36189 ft | 374 kts | 244° |
| 2026-05-05 02:57 | 34.50865 | 135.99641 | 36191 ft | 376 kts | 244° |
| 2026-05-05 02:57 | 34.48447 | 135.94022 | 36192 ft | 374 kts | 244° |
| 2026-05-05 02:58 | 34.46039 | 135.88434 | 36185 ft | 375 kts | 244° |
| 2026-05-05 02:58 | 34.43610 | 135.82803 | 36186 ft | 375 kts | 244° |
| 2026-05-05 02:59 | 34.41190 | 135.77202 | 36180 ft | 374 kts | 244° |
| 2026-05-05 02:59 | 34.38778 | 135.71629 | 36181 ft | 375 kts | 244° |
| 2026-05-05 03:00 | 34.36354 | 135.66037 | 36180 ft | 375 kts | 244° |
| 2026-05-05 03:00 | 34.33944 | 135.60487 | 36179 ft | 373 kts | 244° |
| 2026-05-05 03:01 | 34.31522 | 135.54918 | 36178 ft | 375 kts | 244° |
| 2026-05-05 03:01 | 34.29107 | 135.49371 | 36175 ft | 374 kts | 244° |
| 2026-05-05 03:02 | 34.26671 | 135.43791 | 36171 ft | 372 kts | 244° |
| 2026-05-05 03:02 | 34.24263 | 135.38280 | 36170 ft | 374 kts | 244° |
| 2026-05-05 03:03 | 34.21841 | 135.32745 | 36195 ft | 372 kts | 243° |
| 2026-05-05 03:03 | 34.19421 | 135.27226 | 36191 ft | 373 kts | 244° |
| 2026-05-05 03:04 | 34.16998 | 135.21709 | 36191 ft | 371 kts | 243° |
| 2026-05-05 03:04 | 34.14566 | 135.16179 | 35954 ft | 372 kts | 243° |
| 2026-05-05 03:04 | 34.13361 | 135.13440 | 36182 ft | 372 kts | 243° |
| 2026-05-05 03:05 | 34.12138 | 135.10664 | 36192 ft | 375 kts | 243° |
| 2026-05-05 03:05 | 34.09701 | 135.05144 | 36192 ft | 373 kts | 244° |
| 2026-05-05 03:06 | 34.07255 | 134.99608 | 36186 ft | 374 kts | 244° |
| 2026-05-05 03:06 | 34.04820 | 134.94107 | 36181 ft | 373 kts | 243° |
| 2026-05-05 03:07 | 34.02365 | 134.88567 | 36172 ft | 374 kts | 243° |
| 2026-05-05 03:07 | 33.99911 | 134.83040 | 36158 ft | 375 kts | 244° |
| 2026-05-05 03:08 | 33.97460 | 134.77530 | 36168 ft | 375 kts | 244° |
| 2026-05-05 03:08 | 33.94990 | 134.71983 | 36335 ft | 376 kts | 244° |
| 2026-05-05 03:08 | 33.93758 | 134.69220 | 36163 ft | 374 kts | 243° |
| 2026-05-05 03:09 | 33.92540 | 134.66492 | 36153 ft | 371 kts | 244° |
| 2026-05-05 03:09 | 33.90083 | 134.60994 | 36149 ft | 374 kts | 244° |
| 2026-05-05 03:10 | 33.87620 | 134.55489 | 36160 ft | 374 kts | 243° |
| 2026-05-05 03:10 | 33.85149 | 134.49979 | 36159 ft | 373 kts | 244° |
| 2026-05-05 03:11 | 33.82697 | 134.44514 | 36155 ft | 375 kts | 244° |
| 2026-05-05 03:11 | 33.80214 | 134.38992 | 36156 ft | 374 kts | 243° |
| 2026-05-05 03:12 | 33.77743 | 134.33505 | 36173 ft | 374 kts | 243° |
| 2026-05-05 03:12 | 33.75254 | 134.27986 | 36179 ft | 376 kts | 243° |
| 2026-05-05 03:13 | 33.72764 | 134.22475 | 36177 ft | 377 kts | 243° |
| 2026-05-05 03:13 | 33.70268 | 134.16959 | 36180 ft | 376 kts | 243° |
| 2026-05-05 03:14 | 33.67767 | 134.11440 | 36181 ft | 376 kts | 243° |
| 2026-05-05 03:14 | 33.65271 | 134.05940 | 36179 ft | 376 kts | 243° |
| 2026-05-05 03:15 | 33.62773 | 134.00446 | 36175 ft | 375 kts | 243° |
| 2026-05-05 03:15 | 33.60258 | 133.94920 | 36177 ft | 378 kts | 243° |
| 2026-05-05 03:16 | 33.57742 | 133.89403 | 36180 ft | 375 kts | 243° |
| 2026-05-05 03:16 | 33.55226 | 133.83894 | 36182 ft | 376 kts | 243° |
| 2026-05-05 03:17 | 33.52715 | 133.78404 | 36174 ft | 377 kts | 243° |
| 2026-05-05 03:17 | 33.50193 | 133.72900 | 36166 ft | 377 kts | 243° |
| 2026-05-05 03:18 | 33.47676 | 133.67413 | 36166 ft | 377 kts | 243° |
| 2026-05-05 03:18 | 33.45147 | 133.61911 | 36173 ft | 377 kts | 243° |
| 2026-05-05 03:19 | 33.41360 | 133.53687 | 36168 ft | 377 kts | 243° |
| 2026-05-05 03:19 | 33.38824 | 133.48189 | 36167 ft | 377 kts | 243° |
| 2026-05-05 03:20 | 33.36276 | 133.42674 | 36170 ft | 378 kts | 243° |
| 2026-05-05 03:20 | 33.33746 | 133.37207 | 36171 ft | 377 kts | 243° |
| 2026-05-05 03:21 | 33.31197 | 133.31706 | 36190 ft | 377 kts | 243° |
| 2026-05-05 03:21 | 33.28645 | 133.26207 | 36195 ft | 377 kts | 243° |
| 2026-05-05 03:22 | 33.26107 | 133.20747 | 36194 ft | 377 kts | 243° |
| 2026-05-05 03:22 | 33.23196 | 133.15527 | 36195 ft | 379 kts | 238° |
| 2026-05-05 03:23 | 33.20186 | 133.10396 | 36196 ft | 378 kts | 238° |
| 2026-05-05 03:23 | 33.17162 | 133.05244 | 36195 ft | 380 kts | 238° |
| 2026-05-05 03:24 | 33.14145 | 133.00113 | 36197 ft | 378 kts | 238° |
| 2026-05-05 03:24 | 33.11122 | 132.94977 | 36194 ft | 378 kts | 238° |
| 2026-05-05 03:25 | 33.08091 | 132.89833 | 36191 ft | 378 kts | 238° |
| 2026-05-05 03:25 | 33.05080 | 132.84732 | 36188 ft | 378 kts | 238° |
| 2026-05-05 03:26 | 33.02053 | 132.79610 | 36182 ft | 379 kts | 238° |
| 2026-05-05 03:26 | 32.99019 | 132.74481 | 36179 ft | 378 kts | 238° |
| 2026-05-05 03:27 | 32.95997 | 132.69380 | 36178 ft | 378 kts | 238° |
| 2026-05-05 03:27 | 32.92959 | 132.64259 | 36173 ft | 377 kts | 238° |
| 2026-05-05 03:28 | 32.89947 | 132.59189 | 36171 ft | 379 kts | 238° |
| 2026-05-05 03:28 | 32.86891 | 132.54053 | 36174 ft | 378 kts | 238° |
| 2026-05-05 03:29 | 32.83871 | 132.48981 | 36169 ft | 378 kts | 238° |
| 2026-05-05 03:29 | 32.80826 | 132.43877 | 36163 ft | 378 kts | 238° |
| 2026-05-05 03:30 | 32.77799 | 132.38808 | 36161 ft | 378 kts | 238° |
| 2026-05-05 03:30 | 32.74738 | 132.33691 | 36178 ft | 379 kts | 238° |
| 2026-05-05 03:31 | 32.71685 | 132.28593 | 36183 ft | 379 kts | 238° |
| 2026-05-05 03:31 | 32.68630 | 132.23498 | 36181 ft | 378 kts | 237° |
| 2026-05-05 03:32 | 32.65577 | 132.18416 | 36180 ft | 378 kts | 237° |
| 2026-05-05 03:32 | 32.62573 | 132.13303 | 36178 ft | 379 kts | 238° |
| 2026-05-05 03:33 | 32.59586 | 132.08206 | 36175 ft | 378 kts | 238° |
| 2026-05-05 03:33 | 32.56568 | 132.03069 | 36174 ft | 379 kts | 238° |
| 2026-05-05 03:34 | 32.53557 | 131.97954 | 36169 ft | 380 kts | 238° |
| 2026-05-05 03:34 | 32.50547 | 131.92848 | 36171 ft | 379 kts | 238° |
| 2026-05-05 03:35 | 32.47524 | 131.87729 | 36164 ft | 380 kts | 238° |
| 2026-05-05 03:35 | 32.44504 | 131.82622 | 36164 ft | 379 kts | 237° |
| 2026-05-05 03:36 | 32.41443 | 131.77499 | 36155 ft | 379 kts | 237° |
| 2026-05-05 03:36 | 32.38342 | 131.72467 | 36157 ft | 379 kts | 237° |
| 2026-05-05 03:37 | 32.35225 | 131.67416 | 36152 ft | 379 kts | 237° |
| 2026-05-05 03:37 | 32.32122 | 131.62396 | 36146 ft | 378 kts | 237° |
| 2026-05-05 03:38 | 32.29007 | 131.57361 | 36150 ft | 381 kts | 237° |
| 2026-05-05 03:38 | 32.25892 | 131.52335 | 36151 ft | 379 kts | 237° |
| 2026-05-05 03:39 | 32.22778 | 131.47316 | 36143 ft | 379 kts | 237° |
| 2026-05-05 03:39 | 32.19656 | 131.42291 | 36140 ft | 379 kts | 237° |
| 2026-05-05 03:40 | 32.16531 | 131.37267 | 36139 ft | 379 kts | 237° |
| 2026-05-05 03:40 | 32.13387 | 131.32220 | 36154 ft | 381 kts | 236° |
| 2026-05-05 03:41 | 32.10262 | 131.27211 | 36154 ft | 378 kts | 236° |
| 2026-05-05 03:41 | 32.07139 | 131.22211 | 36150 ft | 379 kts | 237° |
| 2026-05-05 03:42 | 32.04035 | 131.17247 | 36146 ft | 379 kts | 236° |
| 2026-05-05 03:42 | 32.00896 | 131.12234 | 36141 ft | 378 kts | 236° |
| 2026-05-05 03:43 | 31.97786 | 131.07275 | 36139 ft | 380 kts | 236° |
| 2026-05-05 03:43 | 31.94632 | 131.02251 | 36138 ft | 378 kts | 236° |
| 2026-05-05 03:44 | 31.91506 | 130.97279 | 36143 ft | 382 kts | 236° |
| 2026-05-05 03:44 | 31.88350 | 130.92267 | 36150 ft | 380 kts | 237° |
| 2026-05-05 03:45 | 31.85206 | 130.87277 | 36152 ft | 381 kts | 236° |
| 2026-05-05 03:45 | 31.82058 | 130.82289 | 36153 ft | 380 kts | 236° |
| 2026-05-05 03:46 | 31.78885 | 130.77269 | 36154 ft | 382 kts | 236° |
| 2026-05-05 03:46 | 31.75738 | 130.72296 | 36153 ft | 381 kts | 237° |
| 2026-05-05 03:47 | 31.72561 | 130.67281 | 36148 ft | 381 kts | 236° |
| 2026-05-05 03:47 | 31.69392 | 130.62285 | 36152 ft | 382 kts | 237° |
| 2026-05-05 03:48 | 31.66241 | 130.57326 | 36148 ft | 380 kts | 236° |
| 2026-05-05 03:48 | 31.63077 | 130.52350 | 36148 ft | 382 kts | 236° |
| 2026-05-05 03:49 | 31.59894 | 130.47354 | 36141 ft | 381 kts | 237° |
| 2026-05-05 03:49 | 31.56718 | 130.42374 | 36137 ft | 382 kts | 237° |
| 2026-05-05 03:50 | 31.53540 | 130.37395 | 36135 ft | 382 kts | 236° |
| 2026-05-05 03:50 | 31.50352 | 130.32410 | 36159 ft | 384 kts | 236° |
| 2026-05-05 03:51 | 31.47147 | 130.27405 | 36158 ft | 383 kts | 236° |
| 2026-05-05 03:51 | 31.43977 | 130.22456 | 36160 ft | 384 kts | 236° |
| 2026-05-05 03:52 | 31.40777 | 130.17471 | 36157 ft | 382 kts | 236° |
| 2026-05-05 03:52 | 31.37564 | 130.12473 | 36153 ft | 384 kts | 236° |
| 2026-05-05 03:53 | 31.34366 | 130.07503 | 36153 ft | 383 kts | 236° |
| 2026-05-05 03:53 | 31.31169 | 130.02542 | 36149 ft | 383 kts | 236° |
| 2026-05-05 03:54 | 31.27955 | 129.97559 | 36149 ft | 383 kts | 236° |
| 2026-05-05 03:54 | 31.24743 | 129.92586 | 36149 ft | 385 kts | 236° |
| 2026-05-05 03:55 | 31.21521 | 129.87604 | 36147 ft | 384 kts | 236° |
| 2026-05-05 03:55 | 31.18282 | 129.82602 | 36140 ft | 384 kts | 236° |
| 2026-05-05 03:56 | 31.15070 | 129.77650 | 36139 ft | 383 kts | 236° |
| 2026-05-05 03:56 | 31.11825 | 129.72652 | 36142 ft | 385 kts | 236° |
| 2026-05-05 03:57 | 31.08618 | 129.67720 | 36139 ft | 382 kts | 236° |
| 2026-05-05 03:57 | 31.05373 | 129.62733 | 36131 ft | 385 kts | 235° |
| 2026-05-05 03:58 | 31.02146 | 129.57782 | 36137 ft | 383 kts | 236° |
| 2026-05-05 03:58 | 30.98898 | 129.52805 | 36134 ft | 385 kts | 236° |
| 2026-05-05 03:59 | 30.95661 | 129.47850 | 36128 ft | 384 kts | 236° |
| 2026-05-05 03:59 | 30.92417 | 129.42891 | 36123 ft | 385 kts | 236° |
| 2026-05-05 04:00 | 30.90251 | 129.39584 | 36125 ft | 384 kts | 235° |